sensor_id;sensor_type;location;lat;lon;timestamp;pressure;altitude;pressure_sealevel;temperature;humidity
8318;BME280;4196;48.926;8.964;2022-07-29T00:01:24;98791.53;;;17.52;100.00
8318;BME280;4196;48.926;8.964;2022-07-29T00:04:11;98812.81;;;17.68;100.00
8318;BME280;4196;48.926;8.964;2022-07-29T00:06:59;98791.44;;;17.55;100.00
8318;BME280;4196;48.926;8.964;2022-07-29T00:09:45;98745.31;;;17.28;100.00
8318;BME280;4196;48.926;8.964;2022-07-29T00:12:37;98774.34;;;17.45;100.00
8318;BME280;4196;48.926;8.964;2022-07-29T00:15:24;98753.09;;;17.29;100.00
8318;BME280;4196;48.926;8.964;2022-07-29T00:18:10;98789.81;;;17.53;100.00
8318;BME280;4196;48.926;8.964;2022-07-29T00:20:56;98768.41;;;17.40;100.00
8318;BME280;4196;48.926;8.964;2022-07-29T00:23:43;98770.63;;;17.27;100.00
8318;BME280;4196;48.926;8.964;2022-07-29T00:26:29;98765.53;;;17.23;100.00
8318;BME280;4196;48.926;8.964;2022-07-29T00:29:18;98789.88;;;17.25;100.00
8318;BME280;4196;48.926;8.964;2022-07-29T00:32:20;98753.13;;;17.03;100.00
8318;BME280;4196;48.926;8.964;2022-07-29T00:35:07;98788.28;;;17.21;100.00
8318;BME280;4196;48.926;8.964;2022-07-29T00:38:13;98781.56;;;17.13;100.00
8318;BME280;4196;48.926;8.964;2022-07-29T00:41:00;98751.88;;;16.88;100.00
8318;BME280;4196;48.926;8.964;2022-07-29T00:43:47;98762.34;;;16.88;100.00
8318;BME280;4196;48.926;8.964;2022-07-29T00:46:33;98765.97;;;16.84;100.00
8318;BME280;4196;48.926;8.964;2022-07-29T00:49:20;98755.19;;;16.93;100.00
8318;BME280;4196;48.926;8.964;2022-07-29T00:52:08;98760.28;;;16.98;100.00
8318;BME280;4196;48.926;8.964;2022-07-29T00:54:54;98767.25;;;16.97;100.00
8318;BME280;4196;48.926;8.964;2022-07-29T00:57:43;98763.84;;;16.95;100.00
8318;BME280;4196;48.926;8.964;2022-07-29T01:00:30;98764.69;;;16.96;100.00
8318;BME280;4196;48.926;8.964;2022-07-29T01:03:17;98740.66;;;16.84;100.00
8318;BME280;4196;48.926;8.964;2022-07-29T01:06:04;98737.47;;;16.76;100.00
8318;BME280;4196;48.926;8.964;2022-07-29T01:08:51;98759.72;;;16.88;100.00
8318;BME280;4196;48.926;8.964;2022-07-29T01:11:38;98743.44;;;16.80;100.00
8318;BME280;4196;48.926;8.964;2022-07-29T01:14:25;98737.28;;;16.81;100.00
8318;BME280;4196;48.926;8.964;2022-07-29T01:26:04;98758.56;;;17.23;100.00
8318;BME280;4196;48.926;8.964;2022-07-29T01:32:18;98761.00;;;17.28;100.00
8318;BME280;4196;48.926;8.964;2022-07-29T01:35:21;98749.13;;;17.18;100.00
8318;BME280;4196;48.926;8.964;2022-07-29T01:38:21;98711.75;;;16.89;100.00
8318;BME280;4196;48.926;8.964;2022-07-29T01:41:15;98763.03;;;17.20;100.00
8318;BME280;4196;48.926;8.964;2022-07-29T01:44:11;98726.16;;;17.01;100.00
8318;BME280;4196;48.926;8.964;2022-07-29T01:47:02;98749.56;;;17.05;100.00
8318;BME280;4196;48.926;8.964;2022-07-29T01:49:54;98746.41;;;16.96;100.00
8318;BME280;4196;48.926;8.964;2022-07-29T01:53:06;98747.97;;;17.01;100.00
8318;BME280;4196;48.926;8.964;2022-07-29T01:55:55;98757.72;;;16.96;100.00
8318;BME280;4196;48.926;8.964;2022-07-29T01:58:45;98763.84;;;16.95;100.00
8318;BME280;4196;48.926;8.964;2022-07-29T02:01:34;98720.22;;;16.69;100.00
8318;BME280;4196;48.926;8.964;2022-07-29T02:04:22;98740.00;;;16.78;100.00
8318;BME280;4196;48.926;8.964;2022-07-29T02:07:20;98755.59;;;16.81;100.00
8318;BME280;4196;48.926;8.964;2022-07-29T02:10:09;98737.78;;;16.65;100.00
8318;BME280;4196;48.926;8.964;2022-07-29T02:12:57;98735.34;;;16.59;100.00
8318;BME280;4196;48.926;8.964;2022-07-29T02:15:44;98727.66;;;16.55;100.00
8318;BME280;4196;48.926;8.964;2022-07-29T02:18:33;98725.09;;;16.53;100.00
8318;BME280;4196;48.926;8.964;2022-07-29T02:21:24;98735.25;;;16.62;100.00
8318;BME280;4196;48.926;8.964;2022-07-29T02:24:11;98741.03;;;16.72;100.00
8318;BME280;4196;48.926;8.964;2022-07-29T02:27:00;98698.56;;;16.39;100.00
8318;BME280;4196;48.926;8.964;2022-07-29T02:29:48;98745.53;;;16.69;100.00
8318;BME280;4196;48.926;8.964;2022-07-29T02:32:37;98756.72;;;16.74;100.00
8318;BME280;4196;48.926;8.964;2022-07-29T02:35:26;98742.19;;;16.63;100.00
8318;BME280;4196;48.926;8.964;2022-07-29T02:38:20;98733.06;;;16.49;100.00
8318;BME280;4196;48.926;8.964;2022-07-29T02:41:35;98739.06;;;16.52;100.00
8318;BME280;4196;48.926;8.964;2022-07-29T02:44:24;98749.22;;;16.61;100.00
8318;BME280;4196;48.926;8.964;2022-07-29T02:47:24;98758.84;;;16.61;100.00
8318;BME280;4196;48.926;8.964;2022-07-29T02:50:33;98724.88;;;16.33;100.00
8318;BME280;4196;48.926;8.964;2022-07-29T02:53:23;98705.25;;;16.19;100.00
8318;BME280;4196;48.926;8.964;2022-07-29T02:56:14;98764.44;;;16.49;100.00
8318;BME280;4196;48.926;8.964;2022-07-29T02:59:06;98743.22;;;16.31;100.00
8318;BME280;4196;48.926;8.964;2022-07-29T03:01:55;98752.75;;;16.32;100.00
8318;BME280;4196;48.926;8.964;2022-07-29T03:04:44;98752.91;;;16.28;100.00
8318;BME280;4196;48.926;8.964;2022-07-29T03:07:33;98737.56;;;16.17;100.00
8318;BME280;4196;48.926;8.964;2022-07-29T03:10:21;98745.44;;;16.15;100.00
8318;BME280;4196;48.926;8.964;2022-07-29T03:13:07;98756.69;;;16.17;100.00
8318;BME280;4196;48.926;8.964;2022-07-29T03:15:55;98738.03;;;16.02;100.00
8318;BME280;4196;48.926;8.964;2022-07-29T03:18:43;98739.59;;;16.07;100.00
8318;BME280;4196;48.926;8.964;2022-07-29T03:21:30;98740.66;;;16.00;100.00
8318;BME280;4196;48.926;8.964;2022-07-29T03:24:27;98759.78;;;16.30;100.00
8318;BME280;4196;48.926;8.964;2022-07-29T03:27:14;98741.25;;;16.10;100.00
8318;BME280;4196;48.926;8.964;2022-07-29T03:30:00;98742.28;;;16.04;100.00
8318;BME280;4196;48.926;8.964;2022-07-29T03:32:46;98756.16;;;16.06;100.00
8318;BME280;4196;48.926;8.964;2022-07-29T03:35:33;98751.94;;;16.02;100.00
8318;BME280;4196;48.926;8.964;2022-07-29T03:38:20;98752.72;;;16.04;100.00
8318;BME280;4196;48.926;8.964;2022-07-29T03:41:13;98741.03;;;15.88;100.00
8318;BME280;4196;48.926;8.964;2022-07-29T03:44:00;98760.56;;;16.04;100.00
8318;BME280;4196;48.926;8.964;2022-07-29T03:46:49;98752.81;;;16.01;100.00
8318;BME280;4196;48.926;8.964;2022-07-29T03:49:37;98758.88;;;16.03;100.00
8318;BME280;4196;48.926;8.964;2022-07-29T03:52:25;98753.69;;;16.02;100.00
8318;BME280;4196;48.926;8.964;2022-07-29T03:55:12;98742.50;;;15.98;100.00
8318;BME280;4196;48.926;8.964;2022-07-29T03:58:00;98755.47;;;16.00;100.00
8318;BME280;4196;48.926;8.964;2022-07-29T04:00:48;98742.03;;;15.84;100.00
8318;BME280;4196;48.926;8.964;2022-07-29T04:03:35;98736.84;;;15.82;100.00
8318;BME280;4196;48.926;8.964;2022-07-29T04:06:21;98764.88;;;16.05;100.00
8318;BME280;4196;48.926;8.964;2022-07-29T04:09:08;98727.22;;;15.84;100.00
8318;BME280;4196;48.926;8.964;2022-07-29T04:11:55;98756.09;;;16.09;100.00
8318;BME280;4196;48.926;8.964;2022-07-29T04:14:49;98735.50;;;15.99;100.00
8318;BME280;4196;48.926;8.964;2022-07-29T04:17:36;98745.72;;;16.06;100.00
8318;BME280;4196;48.926;8.964;2022-07-29T04:20:22;98765.47;;;16.15;100.00
8318;BME280;4196;48.926;8.964;2022-07-29T04:23:08;98734.53;;;16.01;100.00
8318;BME280;4196;48.926;8.964;2022-07-29T04:25:55;98743.97;;;16.07;100.00
8318;BME280;4196;48.926;8.964;2022-07-29T04:28:41;98750.66;;;16.15;100.00
8318;BME280;4196;48.926;8.964;2022-07-29T04:31:29;98719.06;;;15.95;100.00
8318;BME280;4196;48.926;8.964;2022-07-29T04:34:15;98742.88;;;16.14;100.00
8318;BME280;4196;48.926;8.964;2022-07-29T04:37:02;98707.72;;;15.96;100.00
8318;BME280;4196;48.926;8.964;2022-07-29T04:39:48;98749.78;;;16.16;100.00
8318;BME280;4196;48.926;8.964;2022-07-29T04:42:35;98762.44;;;16.29;100.00
8318;BME280;4196;48.926;8.964;2022-07-29T04:45:31;98773.44;;;16.40;100.00
8318;BME280;4196;48.926;8.964;2022-07-29T04:48:17;98774.13;;;16.45;100.00
8318;BME280;4196;48.926;8.964;2022-07-29T04:51:04;98750.00;;;16.37;100.00
8318;BME280;4196;48.926;8.964;2022-07-29T04:53:50;98754.72;;;16.54;100.00
8318;BME280;4196;48.926;8.964;2022-07-29T04:56:36;98735.25;;;16.62;100.00
8318;BME280;4196;48.926;8.964;2022-07-29T04:59:22;98724.72;;;16.92;100.00
8318;BME280;4196;48.926;8.964;2022-07-29T05:02:09;98752.41;;;17.73;100.00
8318;BME280;4196;48.926;8.964;2022-07-29T05:04:55;98754.22;;;18.41;100.00
8318;BME280;4196;48.926;8.964;2022-07-29T05:07:42;98766.94;;;19.16;100.00
8318;BME280;4196;48.926;8.964;2022-07-29T05:10:28;98756.84;;;20.06;100.00
8318;BME280;4196;48.926;8.964;2022-07-29T05:13:14;98741.47;;;20.90;100.00
8318;BME280;4196;48.926;8.964;2022-07-29T05:16:02;98783.22;;;22.00;100.00
8318;BME280;4196;48.926;8.964;2022-07-29T05:18:49;98741.75;;;22.51;90.93
8318;BME280;4196;48.926;8.964;2022-07-29T05:21:35;98741.53;;;23.02;84.86
8318;BME280;4196;48.926;8.964;2022-07-29T05:24:21;98773.88;;;22.89;81.78
8318;BME280;4196;48.926;8.964;2022-07-29T05:27:08;98756.22;;;22.90;83.03
8318;BME280;4196;48.926;8.964;2022-07-29T05:29:55;98740.28;;;23.07;81.83
8318;BME280;4196;48.926;8.964;2022-07-29T05:32:41;98792.94;;;23.41;79.44
8318;BME280;4196;48.926;8.964;2022-07-29T05:35:28;98758.09;;;22.58;83.55
8318;BME280;4196;48.926;8.964;2022-07-29T05:38:15;98785.66;;;22.36;86.90
8318;BME280;4196;48.926;8.964;2022-07-29T05:41:02;98789.81;;;22.56;85.75
8318;BME280;4196;48.926;8.964;2022-07-29T05:43:48;98771.78;;;22.17;86.26
8318;BME280;4196;48.926;8.964;2022-07-29T05:46:35;98793.59;;;22.03;88.60
8318;BME280;4196;48.926;8.964;2022-07-29T05:49:22;98774.63;;;21.63;89.35
8318;BME280;4196;48.926;8.964;2022-07-29T05:52:12;98798.72;;;21.21;92.47
8318;BME280;4196;48.926;8.964;2022-07-29T05:55:01;98749.59;;;20.30;96.14
8318;BME280;4196;48.926;8.964;2022-07-29T05:57:52;98770.06;;;20.05;100.00
8318;BME280;4196;48.926;8.964;2022-07-29T06:00:38;98756.59;;;19.73;100.00
8318;BME280;4196;48.926;8.964;2022-07-29T06:03:25;98807.84;;;20.02;100.00
8318;BME280;4196;48.926;8.964;2022-07-29T06:06:12;98807.94;;;20.00;100.00
8318;BME280;4196;48.926;8.964;2022-07-29T06:08:58;98789.47;;;20.02;100.00
8318;BME280;4196;48.926;8.964;2022-07-29T06:11:57;98793.72;;;20.05;100.00
8318;BME280;4196;48.926;8.964;2022-07-29T06:14:44;98763.03;;;20.05;100.00
8318;BME280;4196;48.926;8.964;2022-07-29T06:17:31;98781.50;;;20.41;100.00
8318;BME280;4196;48.926;8.964;2022-07-29T06:20:18;98797.66;;;20.53;100.00
8318;BME280;4196;48.926;8.964;2022-07-29T06:23:12;98783.22;;;20.42;100.00
8318;BME280;4196;48.926;8.964;2022-07-29T06:25:58;98802.06;;;20.52;100.00
8318;BME280;4196;48.926;8.964;2022-07-29T06:28:45;98818.25;;;20.62;100.00
8318;BME280;4196;48.926;8.964;2022-07-29T06:31:32;98810.75;;;20.73;100.00
8318;BME280;4196;48.926;8.964;2022-07-29T06:34:18;98823.47;;;21.17;100.00
8318;BME280;4196;48.926;8.964;2022-07-29T06:37:09;98813.16;;;21.49;99.14
8318;BME280;4196;48.926;8.964;2022-07-29T06:40:00;98800.72;;;21.68;100.00
8318;BME280;4196;48.926;8.964;2022-07-29T06:43:05;98820.50;;;22.10;94.00
8318;BME280;4196;48.926;8.964;2022-07-29T06:45:52;98777.34;;;22.28;89.10
8318;BME280;4196;48.926;8.964;2022-07-29T06:48:40;98840.31;;;22.82;92.86
8318;BME280;4196;48.926;8.964;2022-07-29T06:51:28;98843.75;;;23.00;89.64
8318;BME280;4196;48.926;8.964;2022-07-29T06:54:14;98817.13;;;23.19;87.93
8318;BME280;4196;48.926;8.964;2022-07-29T06:57:01;98829.22;;;23.53;86.01
8318;BME280;4196;48.926;8.964;2022-07-29T06:59:48;98820.22;;;23.85;85.29
8318;BME280;4196;48.926;8.964;2022-07-29T07:02:34;98790.56;;;23.80;83.03
8318;BME280;4196;48.926;8.964;2022-07-29T07:05:21;98823.44;;;24.05;77.64
8318;BME280;4196;48.926;8.964;2022-07-29T07:08:07;98846.88;;;24.40;76.47
8318;BME280;4196;48.926;8.964;2022-07-29T07:10:54;98836.47;;;24.51;73.81
8318;BME280;4196;48.926;8.964;2022-07-29T07:13:41;98807.84;;;24.15;72.16
8318;BME280;4196;48.926;8.964;2022-07-29T07:16:27;98845.47;;;24.05;73.46
8318;BME280;4196;48.926;8.964;2022-07-29T07:19:14;98828.56;;;23.63;74.20
8318;BME280;4196;48.926;8.964;2022-07-29T07:22:00;98830.22;;;23.80;75.00
8318;BME280;4196;48.926;8.964;2022-07-29T07:24:49;98823.97;;;23.81;75.87
8318;BME280;4196;48.926;8.964;2022-07-29T07:27:35;98845.94;;;24.12;76.66
8318;BME280;4196;48.926;8.964;2022-07-29T07:30:22;98852.72;;;24.45;75.03
8318;BME280;4196;48.926;8.964;2022-07-29T07:33:08;98838.56;;;24.46;68.78
8318;BME280;4196;48.926;8.964;2022-07-29T07:35:55;98852.72;;;24.45;70.93
8318;BME280;4196;48.926;8.964;2022-07-29T07:38:42;98854.63;;;24.43;75.29
8318;BME280;4196;48.926;8.964;2022-07-29T07:41:28;98800.72;;;24.29;71.26
8318;BME280;4196;48.926;8.964;2022-07-29T07:44:17;98835.16;;;24.44;69.79
8318;BME280;4196;48.926;8.964;2022-07-29T07:47:05;98858.63;;;24.77;71.09
8318;BME280;4196;48.926;8.964;2022-07-29T07:49:58;98837.00;;;24.70;69.36
8318;BME280;4196;48.926;8.964;2022-07-29T07:52:48;98859.50;;;24.63;68.31
8318;BME280;4196;48.926;8.964;2022-07-29T07:55:40;98850.94;;;24.31;69.63
8318;BME280;4196;48.926;8.964;2022-07-29T07:58:46;98834.59;;;24.24;69.14
8318;BME280;4196;48.926;8.964;2022-07-29T08:01:33;98864.06;;;24.32;69.55
8318;BME280;4196;48.926;8.964;2022-07-29T08:04:35;98862.22;;;24.49;68.59
8318;BME280;4196;48.926;8.964;2022-07-29T08:07:22;98842.63;;;24.51;65.42
8318;BME280;4196;48.926;8.964;2022-07-29T08:10:08;98822.19;;;24.53;67.37
8318;BME280;4196;48.926;8.964;2022-07-29T08:12:54;98851.28;;;24.82;66.41
8318;BME280;4196;48.926;8.964;2022-07-29T08:15:41;98862.09;;;24.92;64.27
8318;BME280;4196;48.926;8.964;2022-07-29T08:18:30;98863.09;;;25.18;60.96
8318;BME280;4196;48.926;8.964;2022-07-29T08:21:17;98848.16;;;25.02;61.62
8318;BME280;4196;48.926;8.964;2022-07-29T08:24:04;98845.06;;;24.96;61.96
8318;BME280;4196;48.926;8.964;2022-07-29T08:27:10;98858.44;;;25.21;60.21
8318;BME280;4196;48.926;8.964;2022-07-29T08:30:17;98857.41;;;25.10;60.04
8318;BME280;4196;48.926;8.964;2022-07-29T08:33:03;98840.31;;;25.15;61.77
8318;BME280;4196;48.926;8.964;2022-07-29T08:35:50;98825.44;;;25.13;60.96
8318;BME280;4196;48.926;8.964;2022-07-29T08:38:36;98850.22;;;25.51;58.18
8318;BME280;4196;48.926;8.964;2022-07-29T08:41:23;98842.50;;;25.61;58.66
8318;BME280;4196;48.926;8.964;2022-07-29T08:44:10;98815.44;;;25.30;57.85
8318;BME280;4196;48.926;8.964;2022-07-29T08:46:57;98865.09;;;25.54;56.82
8318;BME280;4196;48.926;8.964;2022-07-29T08:49:43;98821.00;;;24.99;60.78
8318;BME280;4196;48.926;8.964;2022-07-29T08:52:33;98815.53;;;25.02;58.92
8318;BME280;4196;48.926;8.964;2022-07-29T08:55:20;98842.81;;;24.90;59.82
8318;BME280;4196;48.926;8.964;2022-07-29T08:58:07;98850.25;;;25.12;59.82
8318;BME280;4196;48.926;8.964;2022-07-29T09:00:56;98830.47;;;25.03;56.48
8318;BME280;4196;48.926;8.964;2022-07-29T09:03:44;98847.81;;;25.21;60.02
8318;BME280;4196;48.926;8.964;2022-07-29T09:06:34;98809.63;;;25.11;57.64
8318;BME280;4196;48.926;8.964;2022-07-29T09:09:22;98833.88;;;25.32;57.22
8318;BME280;4196;48.926;8.964;2022-07-29T09:12:10;98835.34;;;25.23;55.72
8318;BME280;4196;48.926;8.964;2022-07-29T09:14:57;98834.97;;;25.42;56.76
8318;BME280;4196;48.926;8.964;2022-07-29T09:17:46;98847.84;;;25.07;55.52
8318;BME280;4196;48.926;8.964;2022-07-29T09:20:32;98815.72;;;24.99;56.42
8318;BME280;4196;48.926;8.964;2022-07-29T09:23:38;98838.78;;;25.38;56.45
8318;BME280;4196;48.926;8.964;2022-07-29T09:26:30;98816.81;;;25.36;56.48
8318;BME280;4196;48.926;8.964;2022-07-29T09:29:19;98859.06;;;25.65;55.10
8318;BME280;4196;48.926;8.964;2022-07-29T09:32:08;98839.66;;;25.77;55.51
8318;BME280;4196;48.926;8.964;2022-07-29T09:35:22;98862.09;;;25.98;55.09
8318;BME280;4196;48.926;8.964;2022-07-29T09:38:14;98859.25;;;25.89;53.97
8318;BME280;4196;48.926;8.964;2022-07-29T09:41:02;98854.16;;;25.86;53.38
8318;BME280;4196;48.926;8.964;2022-07-29T09:43:58;98843.53;;;26.11;53.42
8318;BME280;4196;48.926;8.964;2022-07-29T09:47:02;98846.69;;;26.16;53.42
8318;BME280;4196;48.926;8.964;2022-07-29T09:49:57;98812.75;;;25.96;50.20
8318;BME280;4196;48.926;8.964;2022-07-29T09:52:47;98814.25;;;26.00;47.73
8318;BME280;4196;48.926;8.964;2022-07-29T09:58:34;98813.28;;;25.88;48.51
8318;BME280;4196;48.926;8.964;2022-07-29T10:01:28;98838.75;;;26.16;49.89
8318;BME280;4196;48.926;8.964;2022-07-29T10:04:15;98812.94;;;26.06;47.95
8318;BME280;4196;48.926;8.964;2022-07-29T10:07:02;98833.56;;;26.15;47.31
8318;BME280;4196;48.926;8.964;2022-07-29T10:09:56;98786.75;;;26.01;47.77
8318;BME280;4196;48.926;8.964;2022-07-29T10:13:10;98837.44;;;26.35;46.83
8318;BME280;4196;48.926;8.964;2022-07-29T10:16:02;98795.72;;;26.24;47.49
8318;BME280;4196;48.926;8.964;2022-07-29T10:18:48;98836.94;;;26.30;46.08
8318;BME280;4196;48.926;8.964;2022-07-29T10:21:37;98814.91;;;26.53;46.21
8318;BME280;4196;48.926;8.964;2022-07-29T10:24:26;98800.56;;;26.43;44.64
8318;BME280;4196;48.926;8.964;2022-07-29T10:27:13;98821.75;;;26.68;43.94
8318;BME280;4196;48.926;8.964;2022-07-29T10:30:00;98784.00;;;26.52;45.76
8318;BME280;4196;48.926;8.964;2022-07-29T10:36:07;98824.97;;;26.73;43.15
8318;BME280;4196;48.926;8.964;2022-07-29T10:42:39;98795.00;;;27.19;43.54
8318;BME280;4196;48.926;8.964;2022-07-29T10:45:28;98803.41;;;27.37;43.67
8318;BME280;4196;48.926;8.964;2022-07-29T10:48:16;98803.72;;;27.21;43.23
8318;BME280;4196;48.926;8.964;2022-07-29T10:51:04;98812.41;;;27.00;43.66
8318;BME280;4196;48.926;8.964;2022-07-29T10:53:52;98815.44;;;27.06;45.07
8318;BME280;4196;48.926;8.964;2022-07-29T10:56:39;98799.31;;;26.72;44.03
8318;BME280;4196;48.926;8.964;2022-07-29T10:59:29;98816.34;;;26.94;43.84
8318;BME280;4196;48.926;8.964;2022-07-29T11:05:27;98778.22;;;26.58;42.53
8318;BME280;4196;48.926;8.964;2022-07-29T11:08:26;98781.03;;;26.81;44.46
8318;BME280;4196;48.926;8.964;2022-07-29T11:14:07;98748.72;;;26.98;42.78
8318;BME280;4196;48.926;8.964;2022-07-29T11:17:03;98762.72;;;26.89;41.58
8318;BME280;4196;48.926;8.964;2022-07-29T11:23:30;98791.25;;;27.68;41.00
8318;BME280;4196;48.926;8.964;2022-07-29T11:26:20;98797.34;;;27.82;40.12
8318;BME280;4196;48.926;8.964;2022-07-29T11:29:20;98776.28;;;27.79;39.49
8318;BME280;4196;48.926;8.964;2022-07-29T11:32:12;98765.97;;;27.63;38.62
8318;BME280;4196;48.926;8.964;2022-07-29T11:35:21;98796.31;;;27.72;40.06
8318;BME280;4196;48.926;8.964;2022-07-29T11:38:26;98780.06;;;28.10;40.53
8318;BME280;4196;48.926;8.964;2022-07-29T11:44:10;98768.53;;;28.54;38.17
8318;BME280;4196;48.926;8.964;2022-07-29T11:46:57;98796.72;;;29.11;37.36
8318;BME280;4196;48.926;8.964;2022-07-29T11:49:45;98769.72;;;29.05;38.13
8318;BME280;4196;48.926;8.964;2022-07-29T11:52:35;98803.72;;;29.24;38.67
8318;BME280;4196;48.926;8.964;2022-07-29T11:55:36;98785.75;;;29.26;37.25
8318;BME280;4196;48.926;8.964;2022-07-29T11:58:37;98794.19;;;29.31;37.50
8318;BME280;4196;48.926;8.964;2022-07-29T12:01:24;98781.72;;;29.31;39.25
8318;BME280;4196;48.926;8.964;2022-07-29T12:04:13;98793.88;;;29.45;40.44
8318;BME280;4196;48.926;8.964;2022-07-29T12:07:00;98805.19;;;29.37;39.81
8318;BME280;4196;48.926;8.964;2022-07-29T12:09:51;98796.53;;;29.24;36.99
8318;BME280;4196;48.926;8.964;2022-07-29T12:12:42;98769.72;;;28.94;38.51
8318;BME280;4196;48.926;8.964;2022-07-29T12:15:29;98777.13;;;29.01;40.06
8318;BME280;4196;48.926;8.964;2022-07-29T12:18:32;98772.91;;;28.99;37.72
8318;BME280;4196;48.926;8.964;2022-07-29T12:21:19;98776.91;;;28.82;40.20
8318;BME280;4196;48.926;8.964;2022-07-29T12:24:10;98781.00;;;28.65;41.92
8318;BME280;4196;48.926;8.964;2022-07-29T12:26:58;98799.78;;;28.52;40.46
8318;BME280;4196;48.926;8.964;2022-07-29T12:29:55;98795.53;;;28.16;38.99
8318;BME280;4196;48.926;8.964;2022-07-29T12:32:47;98811.16;;;28.32;39.41
8318;BME280;4196;48.926;8.964;2022-07-29T12:35:34;98780.06;;;28.10;39.92
8318;BME280;4196;48.926;8.964;2022-07-29T12:38:21;98790.34;;;28.03;39.87
8318;BME280;4196;48.926;8.964;2022-07-29T12:41:07;98779.69;;;28.03;39.79
8318;BME280;4196;48.926;8.964;2022-07-29T12:43:55;98772.94;;;27.88;41.16
8318;BME280;4196;48.926;8.964;2022-07-29T12:46:42;98775.31;;;27.91;39.80
8318;BME280;4196;48.926;8.964;2022-07-29T12:49:28;98774.97;;;27.84;41.81
8318;BME280;4196;48.926;8.964;2022-07-29T12:52:31;98798.56;;;28.00;40.48
8318;BME280;4196;48.926;8.964;2022-07-29T12:55:41;98798.56;;;27.89;40.94
8318;BME280;4196;48.926;8.964;2022-07-29T13:01:20;98795.66;;;28.03;39.68
8318;BME280;4196;48.926;8.964;2022-07-29T13:04:07;98780.69;;;28.13;41.68
8318;BME280;4196;48.926;8.964;2022-07-29T13:07:04;98798.78;;;28.53;39.63
8318;BME280;4196;48.926;8.964;2022-07-29T13:09:53;98789.84;;;28.54;40.16
8318;BME280;4196;48.926;8.964;2022-07-29T13:13:03;98813.25;;;28.83;38.84
8318;BME280;4196;48.926;8.964;2022-07-29T13:16:06;98794.28;;;28.76;37.45
8318;BME280;4196;48.926;8.964;2022-07-29T13:19:31;98816.41;;;28.88;37.56
8318;BME280;4196;48.926;8.964;2022-07-29T13:22:22;98818.31;;;28.97;38.30
8318;BME280;4196;48.926;8.964;2022-07-29T13:25:09;98811.16;;;29.09;38.53
8318;BME280;4196;48.926;8.964;2022-07-29T13:27:56;98799.03;;;29.05;35.59
8318;BME280;4196;48.926;8.964;2022-07-29T13:30:42;98796.91;;;28.99;36.70
8318;BME280;4196;48.926;8.964;2022-07-29T13:33:30;98812.16;;;29.29;36.09
8318;BME280;4196;48.926;8.964;2022-07-29T13:36:16;98807.28;;;29.34;35.25
8318;BME280;4196;48.926;8.964;2022-07-29T13:39:03;98814.97;;;29.16;35.61
8318;BME280;4196;48.926;8.964;2022-07-29T13:41:49;98804.97;;;29.08;36.02
8318;BME280;4196;48.926;8.964;2022-07-29T13:44:37;98795.53;;;28.93;35.97
8318;BME280;4196;48.926;8.964;2022-07-29T13:47:24;98789.78;;;28.77;35.77
8318;BME280;4196;48.926;8.964;2022-07-29T13:50:18;98815.81;;;28.84;35.69
8318;BME280;4196;48.926;8.964;2022-07-29T13:53:05;98805.06;;;28.63;35.50
8318;BME280;4196;48.926;8.964;2022-07-29T13:55:51;98785.38;;;28.32;36.03
8318;BME280;4196;48.926;8.964;2022-07-29T13:58:37;98774.34;;;28.26;37.64
8318;BME280;4196;48.926;8.964;2022-07-29T14:01:24;98797.59;;;28.24;37.90
8318;BME280;4196;48.926;8.964;2022-07-29T14:04:11;98766.59;;;28.34;38.78
8318;BME280;4196;48.926;8.964;2022-07-29T14:06:58;98783.31;;;28.47;37.53
8318;BME280;4196;48.926;8.964;2022-07-29T14:09:48;98780.03;;;28.55;37.41
8318;BME280;4196;48.926;8.964;2022-07-29T14:12:36;98760.75;;;28.62;37.68
8318;BME280;4196;48.926;8.964;2022-07-29T14:15:22;98752.44;;;28.45;37.34
8318;BME280;4196;48.926;8.964;2022-07-29T14:18:09;98740.19;;;28.53;37.07
8318;BME280;4196;48.926;8.964;2022-07-29T14:20:56;98751.69;;;28.65;38.47
8318;BME280;4196;48.926;8.964;2022-07-29T14:23:43;98761.47;;;28.76;36.99
8318;BME280;4196;48.926;8.964;2022-07-29T14:26:30;98731.19;;;28.65;36.38
8318;BME280;4196;48.926;8.964;2022-07-29T14:29:17;98735.56;;;28.67;36.35
8318;BME280;4196;48.926;8.964;2022-07-29T14:32:07;98774.09;;;28.95;35.97
8318;BME280;4196;48.926;8.964;2022-07-29T14:34:55;98765.88;;;28.86;36.16
8318;BME280;4196;48.926;8.964;2022-07-29T14:37:41;98768.69;;;28.85;34.70
8318;BME280;4196;48.926;8.964;2022-07-29T14:40:28;98768.00;;;28.60;35.64
8318;BME280;4196;48.926;8.964;2022-07-29T14:43:14;98792.09;;;28.70;35.16
8318;BME280;4196;48.926;8.964;2022-07-29T14:46:01;98802.19;;;28.55;37.29
8318;BME280;4196;48.926;8.964;2022-07-29T14:48:53;98793.22;;;28.56;36.47
8318;BME280;4196;48.926;8.964;2022-07-29T14:51:40;98766.81;;;28.53;35.52
8318;BME280;4196;48.926;8.964;2022-07-29T14:54:26;98798.75;;;28.76;34.57
8318;BME280;4196;48.926;8.964;2022-07-29T14:57:13;98779.03;;;28.67;34.42
8318;BME280;4196;48.926;8.964;2022-07-29T14:59:59;98808.22;;;28.69;34.65
8318;BME280;4196;48.926;8.964;2022-07-29T15:02:46;98796.13;;;28.53;36.22
8318;BME280;4196;48.926;8.964;2022-07-29T15:05:48;98808.81;;;28.72;34.88
8318;BME280;4196;48.926;8.964;2022-07-29T15:08:35;98796.09;;;28.64;34.80
8318;BME280;4196;48.926;8.964;2022-07-29T15:11:21;98790.06;;;28.62;34.41
8318;BME280;4196;48.926;8.964;2022-07-29T15:14:08;98808.97;;;28.59;35.40
8318;BME280;4196;48.926;8.964;2022-07-29T15:16:55;98805.34;;;28.49;34.03
8318;BME280;4196;48.926;8.964;2022-07-29T15:19:42;98792.53;;;28.32;34.49
8318;BME280;4196;48.926;8.964;2022-07-29T15:22:30;98799.03;;;28.28;34.39
8318;BME280;4196;48.926;8.964;2022-07-29T15:25:16;98781.16;;;28.07;35.49
8318;BME280;4196;48.926;8.964;2022-07-29T15:28:02;98794.59;;;28.17;34.66
8318;BME280;4196;48.926;8.964;2022-07-29T15:30:53;98780.31;;;28.07;34.37
8318;BME280;4196;48.926;8.964;2022-07-29T15:33:41;98781.00;;;27.98;35.10
8318;BME280;4196;48.926;8.964;2022-07-29T15:36:28;98800.25;;;27.90;34.67
8318;BME280;4196;48.926;8.964;2022-07-29T15:39:34;98795.84;;;27.66;36.10
8318;BME280;4196;48.926;8.964;2022-07-29T15:42:20;98799.47;;;27.65;36.17
8318;BME280;4196;48.926;8.964;2022-07-29T15:45:07;98794.41;;;27.74;35.30
8318;BME280;4196;48.926;8.964;2022-07-29T15:47:53;98794.03;;;27.67;36.79
8318;BME280;4196;48.926;8.964;2022-07-29T15:50:39;98830.47;;;27.78;36.91
8318;BME280;4196;48.926;8.964;2022-07-29T15:53:26;98806.53;;;27.78;36.37
8318;BME280;4196;48.926;8.964;2022-07-29T15:56:12;98785.06;;;27.68;36.09